MMLP 090558Z 00000KT 10SM SKC 17/08 A2999= 090558

MMLP 090557Z 00000KT 10SM SKC 17/08 A2999= 090557

MMLP 090449Z 18005KT 10SM SKC 18/09 A3001= 090449

MMLP 090346Z 00000KT 10SM SKC 20/09 A3000= 090346

MMLP 090141Z 25006KT 10SM FEW100 BKN200 23/07 A2997 RMK 8/038= 090141

MMLP 090040Z 31003KT 10SM FEW100 BKN200 25/12 A2995 RMK 8/038= 090040

MMLP 082343Z 34005KT 10SM FEW100 BKN200 26/08 A2992 RMK SLP131 57007 952 8/038= 082345

MMLP 082253Z 34008KT 10SM FEW100 BKN200 27/11 A2992 RMK 8/038= 082253

MMLP 082157Z 36008KT 10SM FEW100 BKN200 28/07 A2992 RMK 8/038 RTS= 082158

MMLP 082140Z 35009KT 10SM FEW100 BKN200 29/04 A2993 RMK 8/038= 082140

MMLP 082040Z 00000KT 10SM FEW100 BKN200 30/01 A2994 RMK SLP138 57031 953 8/038= 082041

MMLP 081940Z 06003KT 10SM FEW100 BKN200 28/04 A2998 RMK 8/038= 081941

MMLP 081840Z 35007KT 10SM FEW100 BKN200 26/05 A3001 RMK 8/038 HZ= 081843

MMLP 081740Z 00000KT 10SM SCT100 BKN200 25/06 A3003 RMK SLP169 52012 906 8/038 HZ= 081743

MMLP 081640Z 18003KT 10SM BKN100 BKN200 22/07 A3003 RMK 8/038 HZ= 081641

MMLP 081543Z 18003KT 10SM SCT100 BKN200 17/08 A3003 RMK 8/038 HZ= 081543

MMLP 081449Z 14004KT 10SM BKN100 BKN200 12/07 A3000 RMK SLP157 5//// 953 8/038 HZ= 081450

MMLP 081357Z RTD 19005KT 10SM BKN100 BKN200 12/07 A2998 RMK 8/038 RTS= 081357

MMLP 080542Z 18007KT 10SM SKC 16/08 A3000 NOSIG= 080542

MMLP 080442Z 16005KT 10SM SKC 17/07 A3000 NOSIG= 080442

MMLP 080346Z 00000KT 10SM SKC 18/07 A2999 NOSIG= 080346

MMLP 080241Z 00000KT 10SM SKC 20/08 A2997 NOSIG= 080241

MMLP 080140Z 00000KT 10SM FEW200 22/06 A2996 RMK 8/008= 080140

MMLP 080042Z 36003KT 10SM FEW220 25/05 A2994 RMK 8/008= 080043

MMLP 072341Z 35008KT 10SM FEW220 27/05 A2992 RMK SLP133 57008 971 8/008= 072342

MMLP 072244Z 36005KT 10SM FEW220 28/03 A2993 RMK 8/008= 072244

MMLP 072142Z 01010KT 10SM FEW220 28/04 A2993 RMK 8/008= 072143

MMLP 072040Z 02009KT 10SM FEW220 28/04 A2995 RMK SLP141 57022 965 8/008 ISOL AC= 072040

MMLP 071940Z 34008KT 10SM FEW220 27/04 A2997 RMK 8/008= 071941

MMLP 071841Z 34007KT 10SM BKN220 26/08 A3000 RMK 8/008= 071841

MMLP 071741Z 00000KT 10SM BKN200 26/08 A3002 RMK SLP163 52002 967 8/008= 071741

MMLP 071643Z 00000KT 10SM BKN200 23/14 A3003 RMK 8/008 HZY ISOL AC= 071644

MMLP 071544Z 00000KT 10SM FEW100 BKN200 16/12 A3003 RMK 8/038 HZY= 071545

MMLP 071440Z 20004KT 10SM FEW100 BKN200 13/10 A3001 RMK SLP161 5//// 962 8/038 HZY= 071440

MMLP 071400Z RTD 20003KT 10SM FEW100 SCT200 12/10 A3000 RMK 8/038 HZY RTS= 071401

MMLP 070645Z 19005KT 10SM SKC 14/10 A3002 NOSIG= 070645

MMLP 070541Z 00000KT 10SM SKC 15/10 A3002 NOSIG= 070541

MMLP 070440Z 00000KT 10SM SKC 16/11 A3002 NOSIG= 070440

MMLP 070342Z 00000KT 10SM SKC 19/12 A3003 NOSIG= 070342